sensor_id;sensor_type;location;lat;lon;timestamp;P1;durP1;ratioP1;P2;durP2;ratioP2
2972;SDS011;1496;51.404;7.232;2022-10-22T00:00:14;8.20;;;2.60;;
2972;SDS011;1496;51.404;7.232;2022-10-22T00:02:41;5.53;;;2.63;;
2972;SDS011;1496;51.404;7.232;2022-10-22T00:05:08;3.97;;;2.60;;
2972;SDS011;1496;51.404;7.232;2022-10-22T00:07:35;5.77;;;2.93;;
2972;SDS011;1496;51.404;7.232;2022-10-22T00:10:01;11.00;;;3.00;;
2972;SDS011;1496;51.404;7.232;2022-10-22T00:12:28;5.93;;;2.90;;
2972;SDS011;1496;51.404;7.232;2022-10-22T00:14:54;4.17;;;2.40;;
2972;SDS011;1496;51.404;7.232;2022-10-22T00:17:20;5.70;;;2.53;;
2972;SDS011;1496;51.404;7.232;2022-10-22T00:19:45;3.10;;;2.63;;
2972;SDS011;1496;51.404;7.232;2022-10-22T00:22:11;9.80;;;2.77;;
2972;SDS011;1496;51.404;7.232;2022-10-22T00:24:37;11.80;;;2.90;;
2972;SDS011;1496;51.404;7.232;2022-10-22T00:27:03;7.43;;;2.60;;
2972;SDS011;1496;51.404;7.232;2022-10-22T00:29:30;7.00;;;2.57;;
2972;SDS011;1496;51.404;7.232;2022-10-22T00:31:56;6.17;;;2.43;;
2972;SDS011;1496;51.404;7.232;2022-10-22T00:34:22;10.70;;;2.90;;
2972;SDS011;1496;51.404;7.232;2022-10-22T00:36:48;10.07;;;3.40;;
2972;SDS011;1496;51.404;7.232;2022-10-22T00:39:16;10.30;;;3.23;;
2972;SDS011;1496;51.404;7.232;2022-10-22T00:41:44;11.00;;;3.40;;
2972;SDS011;1496;51.404;7.232;2022-10-22T00:47:15;6.53;;;3.10;;
2972;SDS011;1496;51.404;7.232;2022-10-22T00:49:43;4.67;;;2.83;;
2972;SDS011;1496;51.404;7.232;2022-10-22T00:52:10;5.03;;;3.17;;
2972;SDS011;1496;51.404;7.232;2022-10-22T00:54:36;7.60;;;2.53;;
2972;SDS011;1496;51.404;7.232;2022-10-22T00:57:02;5.00;;;3.10;;
2972;SDS011;1496;51.404;7.232;2022-10-22T00:59:28;8.03;;;3.43;;
2972;SDS011;1496;51.404;7.232;2022-10-22T01:01:55;3.97;;;2.70;;
2972;SDS011;1496;51.404;7.232;2022-10-22T01:04:21;7.37;;;3.13;;
2972;SDS011;1496;51.404;7.232;2022-10-22T01:06:47;10.63;;;2.90;;
2972;SDS011;1496;51.404;7.232;2022-10-22T01:09:20;5.93;;;3.67;;
2972;SDS011;1496;51.404;7.232;2022-10-22T01:14:31;4.97;;;2.77;;
2972;SDS011;1496;51.404;7.232;2022-10-22T01:17:02;4.00;;;2.20;;
2972;SDS011;1496;51.404;7.232;2022-10-22T01:22:25;6.43;;;2.90;;
2972;SDS011;1496;51.404;7.232;2022-10-22T01:25:05;6.47;;;2.60;;
2972;SDS011;1496;51.404;7.232;2022-10-22T01:30:46;9.10;;;3.30;;
2972;SDS011;1496;51.404;7.232;2022-10-22T01:33:17;8.53;;;2.30;;
2972;SDS011;1496;51.404;7.232;2022-10-22T01:35:46;9.97;;;3.53;;
2972;SDS011;1496;51.404;7.232;2022-10-22T01:38:14;6.57;;;2.40;;
2972;SDS011;1496;51.404;7.232;2022-10-22T01:40:43;8.57;;;3.60;;
2972;SDS011;1496;51.404;7.232;2022-10-22T01:43:10;8.53;;;3.20;;
2972;SDS011;1496;51.404;7.232;2022-10-22T01:45:43;10.53;;;3.10;;
2972;SDS011;1496;51.404;7.232;2022-10-22T01:53:24;5.63;;;3.10;;
2972;SDS011;1496;51.404;7.232;2022-10-22T01:56:00;6.30;;;3.10;;
2972;SDS011;1496;51.404;7.232;2022-10-22T01:58:52;8.60;;;3.30;;
2972;SDS011;1496;51.404;7.232;2022-10-22T02:01:32;8.70;;;3.80;;
2972;SDS011;1496;51.404;7.232;2022-10-22T02:04:13;5.23;;;3.30;;
2972;SDS011;1496;51.404;7.232;2022-10-22T02:06:48;9.50;;;3.27;;
2972;SDS011;1496;51.404;7.232;2022-10-22T02:09:16;9.30;;;3.80;;
2972;SDS011;1496;51.404;7.232;2022-10-22T02:11:45;8.90;;;3.83;;
2972;SDS011;1496;51.404;7.232;2022-10-22T02:14:12;10.63;;;3.40;;
2972;SDS011;1496;51.404;7.232;2022-10-22T02:16:42;8.87;;;3.37;;
2972;SDS011;1496;51.404;7.232;2022-10-22T02:19:12;8.77;;;3.50;;
2972;SDS011;1496;51.404;7.232;2022-10-22T02:21:42;5.47;;;3.40;;
2972;SDS011;1496;51.404;7.232;2022-10-22T02:24:08;4.97;;;3.20;;
2972;SDS011;1496;51.404;7.232;2022-10-22T02:26:36;7.43;;;3.23;;
2972;SDS011;1496;51.404;7.232;2022-10-22T02:29:09;11.00;;;3.27;;
2972;SDS011;1496;51.404;7.232;2022-10-22T02:31:39;8.80;;;3.60;;
2972;SDS011;1496;51.404;7.232;2022-10-22T02:34:09;10.43;;;3.60;;
2972;SDS011;1496;51.404;7.232;2022-10-22T02:36:39;9.13;;;4.07;;
2972;SDS011;1496;51.404;7.232;2022-10-22T02:39:06;6.03;;;3.17;;
2972;SDS011;1496;51.404;7.232;2022-10-22T02:41:34;4.53;;;3.60;;
2972;SDS011;1496;51.404;7.232;2022-10-22T02:44:00;7.30;;;3.47;;
2972;SDS011;1496;51.404;7.232;2022-10-22T02:46:27;7.13;;;3.87;;
2972;SDS011;1496;51.404;7.232;2022-10-22T02:48:53;10.90;;;3.37;;
2972;SDS011;1496;51.404;7.232;2022-10-22T02:51:18;7.47;;;2.93;;
2972;SDS011;1496;51.404;7.232;2022-10-22T02:53:44;4.03;;;3.37;;
2972;SDS011;1496;51.404;7.232;2022-10-22T02:56:10;4.60;;;3.13;;
2972;SDS011;1496;51.404;7.232;2022-10-22T02:58:35;7.33;;;3.73;;
2972;SDS011;1496;51.404;7.232;2022-10-22T03:01:01;6.93;;;3.00;;
2972;SDS011;1496;51.404;7.232;2022-10-22T03:03:27;5.80;;;3.30;;
2972;SDS011;1496;51.404;7.232;2022-10-22T03:05:52;8.97;;;3.53;;
2972;SDS011;1496;51.404;7.232;2022-10-22T03:08:18;11.97;;;3.53;;
2972;SDS011;1496;51.404;7.232;2022-10-22T03:10:44;6.73;;;3.37;;
2972;SDS011;1496;51.404;7.232;2022-10-22T03:13:09;5.20;;;2.90;;
2972;SDS011;1496;51.404;7.232;2022-10-22T03:15:35;5.70;;;3.30;;
2972;SDS011;1496;51.404;7.232;2022-10-22T03:18:01;9.33;;;3.23;;
2972;SDS011;1496;51.404;7.232;2022-10-22T03:20:26;6.53;;;3.43;;
2972;SDS011;1496;51.404;7.232;2022-10-22T03:22:52;6.87;;;3.00;;
2972;SDS011;1496;51.404;7.232;2022-10-22T03:25:20;9.40;;;4.10;;
2972;SDS011;1496;51.404;7.232;2022-10-22T03:27:48;7.47;;;3.50;;
2972;SDS011;1496;51.404;7.232;2022-10-22T03:30:16;6.23;;;3.90;;
2972;SDS011;1496;51.404;7.232;2022-10-22T03:32:41;6.37;;;3.70;;
2972;SDS011;1496;51.404;7.232;2022-10-22T03:35:07;6.80;;;3.80;;
2972;SDS011;1496;51.404;7.232;2022-10-22T03:37:33;7.17;;;3.60;;
2972;SDS011;1496;51.404;7.232;2022-10-22T03:40:00;6.70;;;4.27;;
2972;SDS011;1496;51.404;7.232;2022-10-22T03:42:26;6.93;;;4.73;;
2972;SDS011;1496;51.404;7.232;2022-10-22T03:44:52;7.47;;;3.70;;
2972;SDS011;1496;51.404;7.232;2022-10-22T03:47:18;8.30;;;4.50;;
2972;SDS011;1496;51.404;7.232;2022-10-22T03:49:43;10.00;;;4.37;;
2972;SDS011;1496;51.404;7.232;2022-10-22T03:52:10;7.90;;;3.97;;
2972;SDS011;1496;51.404;7.232;2022-10-22T03:54:37;8.50;;;4.57;;
2972;SDS011;1496;51.404;7.232;2022-10-22T03:57:04;9.30;;;4.40;;
2972;SDS011;1496;51.404;7.232;2022-10-22T03:59:48;7.27;;;4.57;;
2972;SDS011;1496;51.404;7.232;2022-10-22T04:02:15;7.47;;;4.37;;
2972;SDS011;1496;51.404;7.232;2022-10-22T04:04:41;5.93;;;4.77;;
2972;SDS011;1496;51.404;7.232;2022-10-22T04:07:06;7.07;;;5.00;;
2972;SDS011;1496;51.404;7.232;2022-10-22T04:09:32;12.40;;;4.77;;
2972;SDS011;1496;51.404;7.232;2022-10-22T04:11:59;12.50;;;4.63;;
2972;SDS011;1496;51.404;7.232;2022-10-22T04:14:25;8.20;;;4.70;;
2972;SDS011;1496;51.404;7.232;2022-10-22T04:16:50;5.50;;;3.87;;
2972;SDS011;1496;51.404;7.232;2022-10-22T04:19:16;6.83;;;5.10;;
2972;SDS011;1496;51.404;7.232;2022-10-22T04:21:42;10.77;;;4.53;;
2972;SDS011;1496;51.404;7.232;2022-10-22T04:24:08;13.30;;;3.70;;
2972;SDS011;1496;51.404;7.232;2022-10-22T04:26:34;5.50;;;4.17;;
2972;SDS011;1496;51.404;7.232;2022-10-22T04:29:00;6.17;;;4.60;;
2972;SDS011;1496;51.404;7.232;2022-10-22T04:31:26;6.00;;;4.57;;
2972;SDS011;1496;51.404;7.232;2022-10-22T04:33:55;7.13;;;4.30;;
2972;SDS011;1496;51.404;7.232;2022-10-22T04:36:22;9.63;;;4.50;;
2972;SDS011;1496;51.404;7.232;2022-10-22T04:38:52;7.83;;;4.50;;
2972;SDS011;1496;51.404;7.232;2022-10-22T04:41:20;7.37;;;4.13;;
2972;SDS011;1496;51.404;7.232;2022-10-22T04:44:00;7.53;;;4.73;;
2972;SDS011;1496;51.404;7.232;2022-10-22T04:46:28;7.20;;;4.63;;
2972;SDS011;1496;51.404;7.232;2022-10-22T04:48:55;9.17;;;5.07;;
2972;SDS011;1496;51.404;7.232;2022-10-22T04:51:22;8.77;;;4.93;;
2972;SDS011;1496;51.404;7.232;2022-10-22T04:53:48;6.77;;;4.10;;
2972;SDS011;1496;51.404;7.232;2022-10-22T04:56:16;17.00;;;5.00;;
2972;SDS011;1496;51.404;7.232;2022-10-22T04:58:47;11.27;;;4.83;;
2972;SDS011;1496;51.404;7.232;2022-10-22T05:01:18;9.00;;;4.87;;
2972;SDS011;1496;51.404;7.232;2022-10-22T05:03:45;7.90;;;4.70;;
2972;SDS011;1496;51.404;7.232;2022-10-22T05:06:12;9.50;;;4.87;;
2972;SDS011;1496;51.404;7.232;2022-10-22T05:08:38;16.23;;;5.07;;
2972;SDS011;1496;51.404;7.232;2022-10-22T05:11:17;7.50;;;5.27;;
2972;SDS011;1496;51.404;7.232;2022-10-22T05:13:45;8.07;;;5.00;;
2972;SDS011;1496;51.404;7.232;2022-10-22T05:16:11;7.77;;;5.70;;
2972;SDS011;1496;51.404;7.232;2022-10-22T05:18:38;9.07;;;4.77;;
2972;SDS011;1496;51.404;7.232;2022-10-22T05:21:09;8.73;;;5.13;;
2972;SDS011;1496;51.404;7.232;2022-10-22T05:23:37;8.67;;;4.70;;
2972;SDS011;1496;51.404;7.232;2022-10-22T05:26:03;6.83;;;4.97;;
2972;SDS011;1496;51.404;7.232;2022-10-22T05:28:30;8.63;;;4.07;;
2972;SDS011;1496;51.404;7.232;2022-10-22T05:30:58;6.17;;;4.57;;
2972;SDS011;1496;51.404;7.232;2022-10-22T05:33:25;10.00;;;4.60;;
2972;SDS011;1496;51.404;7.232;2022-10-22T05:35:51;5.37;;;4.80;;
2972;SDS011;1496;51.404;7.232;2022-10-22T05:38:18;8.20;;;4.70;;
2972;SDS011;1496;51.404;7.232;2022-10-22T05:40:44;7.90;;;4.70;;
2972;SDS011;1496;51.404;7.232;2022-10-22T05:43:10;8.30;;;5.00;;
2972;SDS011;1496;51.404;7.232;2022-10-22T05:45:39;7.93;;;5.00;;
2972;SDS011;1496;51.404;7.232;2022-10-22T05:48:06;6.50;;;4.83;;
2972;SDS011;1496;51.404;7.232;2022-10-22T05:50:36;7.30;;;5.03;;
2972;SDS011;1496;51.404;7.232;2022-10-22T05:53:03;8.53;;;4.97;;
2972;SDS011;1496;51.404;7.232;2022-10-22T05:55:29;7.67;;;5.90;;
2972;SDS011;1496;51.404;7.232;2022-10-22T05:58:01;9.27;;;5.27;;
2972;SDS011;1496;51.404;7.232;2022-10-22T06:00:27;8.17;;;5.23;;
2972;SDS011;1496;51.404;7.232;2022-10-22T06:02:53;12.10;;;5.43;;
2972;SDS011;1496;51.404;7.232;2022-10-22T06:05:19;11.57;;;6.40;;
2972;SDS011;1496;51.404;7.232;2022-10-22T06:07:44;7.00;;;5.00;;
2972;SDS011;1496;51.404;7.232;2022-10-22T06:10:14;12.10;;;6.70;;
2972;SDS011;1496;51.404;7.232;2022-10-22T06:12:43;13.57;;;6.47;;
2972;SDS011;1496;51.404;7.232;2022-10-22T06:15:13;8.67;;;6.20;;
2972;SDS011;1496;51.404;7.232;2022-10-22T06:17:40;12.30;;;6.57;;
2972;SDS011;1496;51.404;7.232;2022-10-22T06:20:08;10.77;;;5.43;;
2972;SDS011;1496;51.404;7.232;2022-10-22T06:22:35;15.43;;;5.80;;
2972;SDS011;1496;51.404;7.232;2022-10-22T06:25:00;9.13;;;5.80;;
2972;SDS011;1496;51.404;7.232;2022-10-22T06:27:26;15.87;;;5.80;;
2972;SDS011;1496;51.404;7.232;2022-10-22T06:29:52;7.10;;;5.90;;
2972;SDS011;1496;51.404;7.232;2022-10-22T06:32:17;9.77;;;6.20;;
2972;SDS011;1496;51.404;7.232;2022-10-22T06:34:43;7.30;;;5.60;;
2972;SDS011;1496;51.404;7.232;2022-10-22T06:37:10;13.47;;;6.30;;
2972;SDS011;1496;51.404;7.232;2022-10-22T06:39:37;13.07;;;6.20;;
2972;SDS011;1496;51.404;7.232;2022-10-22T06:42:03;7.00;;;5.70;;
2972;SDS011;1496;51.404;7.232;2022-10-22T06:44:32;12.00;;;5.73;;
2972;SDS011;1496;51.404;7.232;2022-10-22T06:47:00;6.90;;;4.87;;
2972;SDS011;1496;51.404;7.232;2022-10-22T06:49:26;9.83;;;5.70;;
2972;SDS011;1496;51.404;7.232;2022-10-22T06:51:52;9.37;;;5.17;;
2972;SDS011;1496;51.404;7.232;2022-10-22T06:54:19;8.30;;;5.10;;
2972;SDS011;1496;51.404;7.232;2022-10-22T06:56:45;7.03;;;5.27;;
2972;SDS011;1496;51.404;7.232;2022-10-22T06:59:10;8.67;;;4.80;;
2972;SDS011;1496;51.404;7.232;2022-10-22T07:01:37;7.77;;;4.93;;
2972;SDS011;1496;51.404;7.232;2022-10-22T07:04:03;12.93;;;4.63;;
2972;SDS011;1496;51.404;7.232;2022-10-22T07:06:29;14.03;;;4.77;;
2972;SDS011;1496;51.404;7.232;2022-10-22T07:08:56;6.80;;;4.93;;
2972;SDS011;1496;51.404;7.232;2022-10-22T07:11:23;7.40;;;4.80;;
2972;SDS011;1496;51.404;7.232;2022-10-22T07:13:50;9.30;;;4.77;;
2972;SDS011;1496;51.404;7.232;2022-10-22T07:16:19;10.73;;;3.80;;
2972;SDS011;1496;51.404;7.232;2022-10-22T07:18:45;9.27;;;3.93;;
2972;SDS011;1496;51.404;7.232;2022-10-22T07:21:12;5.40;;;4.30;;
2972;SDS011;1496;51.404;7.232;2022-10-22T07:23:38;9.03;;;3.90;;
2972;SDS011;1496;51.404;7.232;2022-10-22T07:26:05;8.00;;;4.20;;
2972;SDS011;1496;51.404;7.232;2022-10-22T07:28:31;10.80;;;3.67;;
2972;SDS011;1496;51.404;7.232;2022-10-22T07:30:58;7.40;;;3.90;;
2972;SDS011;1496;51.404;7.232;2022-10-22T07:33:24;9.27;;;3.57;;
2972;SDS011;1496;51.404;7.232;2022-10-22T07:35:50;11.07;;;3.93;;
2972;SDS011;1496;51.404;7.232;2022-10-22T07:38:21;8.20;;;4.20;;
2972;SDS011;1496;51.404;7.232;2022-10-22T07:40:46;10.53;;;3.77;;
2972;SDS011;1496;51.404;7.232;2022-10-22T07:43:12;8.53;;;3.20;;
2972;SDS011;1496;51.404;7.232;2022-10-22T07:45:37;11.47;;;3.87;;
2972;SDS011;1496;51.404;7.232;2022-10-22T07:48:05;7.53;;;3.50;;
2972;SDS011;1496;51.404;7.232;2022-10-22T07:50:30;5.27;;;3.63;;
2972;SDS011;1496;51.404;7.232;2022-10-22T07:52:56;10.03;;;3.17;;
2972;SDS011;1496;51.404;7.232;2022-10-22T07:55:22;7.73;;;3.67;;
2972;SDS011;1496;51.404;7.232;2022-10-22T07:57:47;7.30;;;3.23;;
2972;SDS011;1496;51.404;7.232;2022-10-22T08:00:13;6.50;;;3.87;;
2972;SDS011;1496;51.404;7.232;2022-10-22T08:02:39;11.50;;;3.43;;
2972;SDS011;1496;51.404;7.232;2022-10-22T08:05:05;5.27;;;3.10;;
2972;SDS011;1496;51.404;7.232;2022-10-22T08:07:31;6.03;;;2.83;;
2972;SDS011;1496;51.404;7.232;2022-10-22T08:09:56;6.90;;;2.40;;
2972;SDS011;1496;51.404;7.232;2022-10-22T08:12:22;7.97;;;3.13;;
2972;SDS011;1496;51.404;7.232;2022-10-22T08:14:47;6.10;;;2.83;;
2972;SDS011;1496;51.404;7.232;2022-10-22T08:17:13;7.67;;;3.23;;
2972;SDS011;1496;51.404;7.232;2022-10-22T08:19:42;6.27;;;2.60;;
2972;SDS011;1496;51.404;7.232;2022-10-22T08:22:07;4.80;;;2.63;;
2972;SDS011;1496;51.404;7.232;2022-10-22T08:24:33;5.90;;;2.93;;
2972;SDS011;1496;51.404;7.232;2022-10-22T08:26:59;6.30;;;2.77;;
2972;SDS011;1496;51.404;7.232;2022-10-22T08:29:25;6.30;;;2.80;;
2972;SDS011;1496;51.404;7.232;2022-10-22T08:31:51;11.93;;;2.60;;
2972;SDS011;1496;51.404;7.232;2022-10-22T08:34:17;12.00;;;2.93;;
2972;SDS011;1496;51.404;7.232;2022-10-22T08:36:43;8.40;;;2.50;;
2972;SDS011;1496;51.404;7.232;2022-10-22T08:39:09;10.10;;;3.10;;
2972;SDS011;1496;51.404;7.232;2022-10-22T08:41:39;6.30;;;2.50;;
2972;SDS011;1496;51.404;7.232;2022-10-22T08:47:03;7.03;;;2.40;;
2972;SDS011;1496;51.404;7.232;2022-10-22T08:49:53;8.83;;;2.70;;
2972;SDS011;1496;51.404;7.232;2022-10-22T08:52:21;15.23;;;3.30;;
2972;SDS011;1496;51.404;7.232;2022-10-22T08:54:51;9.67;;;2.60;;
2972;SDS011;1496;51.404;7.232;2022-10-22T09:05:34;6.47;;;2.40;;
2972;SDS011;1496;51.404;7.232;2022-10-22T09:08:18;10.93;;;2.70;;
2972;SDS011;1496;51.404;7.232;2022-10-22T09:10:45;11.70;;;2.50;;
2972;SDS011;1496;51.404;7.232;2022-10-22T09:13:15;9.17;;;2.20;;
2972;SDS011;1496;51.404;7.232;2022-10-22T09:15:45;9.53;;;2.37;;
2972;SDS011;1496;51.404;7.232;2022-10-22T09:18:26;14.03;;;2.50;;
2972;SDS011;1496;51.404;7.232;2022-10-22T09:21:09;10.43;;;3.00;;
2972;SDS011;1496;51.404;7.232;2022-10-22T09:26:18;13.77;;;2.20;;
2972;SDS011;1496;51.404;7.232;2022-10-22T09:28:47;9.93;;;2.70;;
2972;SDS011;1496;51.404;7.232;2022-10-22T09:31:14;12.40;;;2.77;;
2972;SDS011;1496;51.404;7.232;2022-10-22T09:33:41;8.27;;;2.80;;
2972;SDS011;1496;51.404;7.232;2022-10-22T09:36:08;7.10;;;2.23;;
2972;SDS011;1496;51.404;7.232;2022-10-22T09:38:44;9.20;;;2.40;;
2972;SDS011;1496;51.404;7.232;2022-10-22T09:41:11;5.60;;;2.57;;
2972;SDS011;1496;51.404;7.232;2022-10-22T09:43:37;11.80;;;3.30;;
2972;SDS011;1496;51.404;7.232;2022-10-22T09:46:04;6.77;;;2.80;;
2972;SDS011;1496;51.404;7.232;2022-10-22T09:48:33;9.57;;;2.70;;
2972;SDS011;1496;51.404;7.232;2022-10-22T09:51:04;7.60;;;2.90;;
2972;SDS011;1496;51.404;7.232;2022-10-22T09:53:35;11.47;;;3.80;;
2972;SDS011;1496;51.404;7.232;2022-10-22T09:56:07;8.40;;;2.87;;
2972;SDS011;1496;51.404;7.232;2022-10-22T09:58:44;14.00;;;2.90;;
2972;SDS011;1496;51.404;7.232;2022-10-22T10:01:17;11.33;;;3.10;;
2972;SDS011;1496;51.404;7.232;2022-10-22T10:04:04;14.77;;;2.80;;
2972;SDS011;1496;51.404;7.232;2022-10-22T10:06:32;10.60;;;2.20;;
2972;SDS011;1496;51.404;7.232;2022-10-22T10:08:58;12.67;;;3.30;;
2972;SDS011;1496;51.404;7.232;2022-10-22T10:24:58;17.50;;;2.67;;
2972;SDS011;1496;51.404;7.232;2022-10-22T10:27:34;21.10;;;3.60;;
2972;SDS011;1496;51.404;7.232;2022-10-22T10:30:20;13.80;;;2.93;;
2972;SDS011;1496;51.404;7.232;2022-10-22T10:36:16;9.20;;;2.13;;
2972;SDS011;1496;51.404;7.232;2022-10-22T10:38:52;13.73;;;2.30;;
2972;SDS011;1496;51.404;7.232;2022-10-22T10:50:08;17.77;;;2.10;;
2972;SDS011;1496;51.404;7.232;2022-10-22T10:52:48;13.30;;;2.10;;
2972;SDS011;1496;51.404;7.232;2022-10-22T10:55:40;16.47;;;2.57;;
2972;SDS011;1496;51.404;7.232;2022-10-22T10:58:33;16.60;;;2.20;;
2972;SDS011;1496;51.404;7.232;2022-10-22T11:01:26;11.97;;;2.13;;
2972;SDS011;1496;51.404;7.232;2022-10-22T11:06:37;16.60;;;2.50;;
2972;SDS011;1496;51.404;7.232;2022-10-22T11:09:20;16.07;;;2.10;;
2972;SDS011;1496;51.404;7.232;2022-10-22T11:11:54;12.97;;;2.53;;
2972;SDS011;1496;51.404;7.232;2022-10-22T11:17:12;12.20;;;1.83;;
2972;SDS011;1496;51.404;7.232;2022-10-22T11:19:40;15.50;;;1.90;;
2972;SDS011;1496;51.404;7.232;2022-10-22T11:24:55;15.40;;;2.07;;
2972;SDS011;1496;51.404;7.232;2022-10-22T11:30:22;15.93;;;2.20;;
2972;SDS011;1496;51.404;7.232;2022-10-22T11:32:53;17.17;;;2.63;;
2972;SDS011;1496;51.404;7.232;2022-10-22T11:35:26;14.03;;;1.83;;
2972;SDS011;1496;51.404;7.232;2022-10-22T11:37:55;19.93;;;2.20;;
2972;SDS011;1496;51.404;7.232;2022-10-22T11:42:59;18.97;;;1.70;;
2972;SDS011;1496;51.404;7.232;2022-10-22T11:45:53;22.40;;;2.27;;
2972;SDS011;1496;51.404;7.232;2022-10-22T11:48:42;25.53;;;2.20;;
2972;SDS011;1496;51.404;7.232;2022-10-22T11:53:54;25.23;;;2.10;;
2972;SDS011;1496;51.404;7.232;2022-10-22T11:56:22;24.60;;;1.80;;
2972;SDS011;1496;51.404;7.232;2022-10-22T11:58:50;21.40;;;2.00;;
2972;SDS011;1496;51.404;7.232;2022-10-22T12:01:22;24.37;;;1.70;;
2972;SDS011;1496;51.404;7.232;2022-10-22T12:03:51;24.60;;;2.10;;
2972;SDS011;1496;51.404;7.232;2022-10-22T12:06:23;29.67;;;1.80;;
2972;SDS011;1496;51.404;7.232;2022-10-22T12:14:16;23.93;;;1.37;;
2972;SDS011;1496;51.404;7.232;2022-10-22T12:17:06;26.13;;;1.60;;
2972;SDS011;1496;51.404;7.232;2022-10-22T12:19:37;28.40;;;2.27;;
2972;SDS011;1496;51.404;7.232;2022-10-22T12:24:41;23.00;;;1.40;;
2972;SDS011;1496;51.404;7.232;2022-10-22T12:27:35;27.80;;;2.07;;
2972;SDS011;1496;51.404;7.232;2022-10-22T12:30:15;24.20;;;1.27;;
2972;SDS011;1496;51.404;7.232;2022-10-22T12:32:43;28.83;;;2.10;;
2972;SDS011;1496;51.404;7.232;2022-10-22T12:35:19;24.10;;;1.30;;
2972;SDS011;1496;51.404;7.232;2022-10-22T12:37:50;37.57;;;2.20;;
2972;SDS011;1496;51.404;7.232;2022-10-22T12:40:17;23.87;;;1.57;;
2972;SDS011;1496;51.404;7.232;2022-10-22T12:42:55;23.00;;;1.53;;
2972;SDS011;1496;51.404;7.232;2022-10-22T12:45:24;23.83;;;1.80;;
2972;SDS011;1496;51.404;7.232;2022-10-22T12:47:56;24.10;;;1.73;;
2972;SDS011;1496;51.404;7.232;2022-10-22T12:50:25;22.13;;;1.30;;
2972;SDS011;1496;51.404;7.232;2022-10-22T12:52:57;27.87;;;2.17;;
2972;SDS011;1496;51.404;7.232;2022-10-22T12:55:24;25.57;;;1.73;;
2972;SDS011;1496;51.404;7.232;2022-10-22T12:57:50;23.60;;;1.63;;
2972;SDS011;1496;51.404;7.232;2022-10-22T13:02:51;27.60;;;1.70;;
2972;SDS011;1496;51.404;7.232;2022-10-22T13:07:51;22.80;;;1.53;;
2972;SDS011;1496;51.404;7.232;2022-10-22T13:10:31;24.97;;;1.40;;
2972;SDS011;1496;51.404;7.232;2022-10-22T13:12:58;29.10;;;2.00;;
2972;SDS011;1496;51.404;7.232;2022-10-22T13:20:53;20.00;;;1.47;;
2972;SDS011;1496;51.404;7.232;2022-10-22T13:23:19;16.17;;;1.27;;
2972;SDS011;1496;51.404;7.232;2022-10-22T13:28:54;26.03;;;1.30;;
2972;SDS011;1496;51.404;7.232;2022-10-22T13:31:25;21.43;;;1.40;;
2972;SDS011;1496;51.404;7.232;2022-10-22T13:33:56;19.30;;;1.43;;
2972;SDS011;1496;51.404;7.232;2022-10-22T13:36:30;22.57;;;1.30;;
2972;SDS011;1496;51.404;7.232;2022-10-22T13:38:56;24.93;;;1.77;;
2972;SDS011;1496;51.404;7.232;2022-10-22T13:41:23;20.07;;;1.50;;
2972;SDS011;1496;51.404;7.232;2022-10-22T13:43:50;25.20;;;1.50;;
2972;SDS011;1496;51.404;7.232;2022-10-22T13:46:17;19.97;;;1.30;;
2972;SDS011;1496;51.404;7.232;2022-10-22T13:48:44;17.03;;;1.20;;
2972;SDS011;1496;51.404;7.232;2022-10-22T13:51:13;23.07;;;2.57;;
2972;SDS011;1496;51.404;7.232;2022-10-22T13:53:41;17.30;;;1.37;;
2972;SDS011;1496;51.404;7.232;2022-10-22T13:56:11;18.73;;;1.50;;
2972;SDS011;1496;51.404;7.232;2022-10-22T13:58:44;19.87;;;1.73;;
2972;SDS011;1496;51.404;7.232;2022-10-22T14:03:51;20.10;;;1.67;;
2972;SDS011;1496;51.404;7.232;2022-10-22T14:06:19;17.57;;;1.27;;
2972;SDS011;1496;51.404;7.232;2022-10-22T14:08:49;19.43;;;1.30;;
2972;SDS011;1496;51.404;7.232;2022-10-22T14:11:20;15.87;;;1.77;;
2972;SDS011;1496;51.404;7.232;2022-10-22T14:13:45;8.90;;;1.23;;
2972;SDS011;1496;51.404;7.232;2022-10-22T14:16:19;9.77;;;1.47;;
2972;SDS011;1496;51.404;7.232;2022-10-22T14:18:48;11.13;;;1.20;;
2972;SDS011;1496;51.404;7.232;2022-10-22T14:21:14;12.70;;;1.10;;
2972;SDS011;1496;51.404;7.232;2022-10-22T14:23:41;12.83;;;1.33;;
2972;SDS011;1496;51.404;7.232;2022-10-22T14:26:22;16.87;;;2.17;;
2972;SDS011;1496;51.404;7.232;2022-10-22T14:28:49;10.63;;;1.30;;
2972;SDS011;1496;51.404;7.232;2022-10-22T14:31:15;10.77;;;1.23;;
2972;SDS011;1496;51.404;7.232;2022-10-22T14:33:41;13.40;;;1.30;;
2972;SDS011;1496;51.404;7.232;2022-10-22T14:36:08;7.43;;;1.10;;
2972;SDS011;1496;51.404;7.232;2022-10-22T14:38:37;3.83;;;0.80;;
2972;SDS011;1496;51.404;7.232;2022-10-22T14:41:04;5.03;;;1.00;;
2972;SDS011;1496;51.404;7.232;2022-10-22T14:43:40;3.50;;;0.90;;
2972;SDS011;1496;51.404;7.232;2022-10-22T14:46:06;3.17;;;1.10;;
2972;SDS011;1496;51.404;7.232;2022-10-22T14:48:35;2.30;;;1.10;;
2972;SDS011;1496;51.404;7.232;2022-10-22T14:51:00;4.27;;;1.00;;
2972;SDS011;1496;51.404;7.232;2022-10-22T14:53:26;2.40;;;1.00;;
2972;SDS011;1496;51.404;7.232;2022-10-22T14:55:51;5.63;;;1.30;;
2972;SDS011;1496;51.404;7.232;2022-10-22T14:58:19;5.60;;;1.47;;
2972;SDS011;1496;51.404;7.232;2022-10-22T15:00:45;3.80;;;0.90;;
2972;SDS011;1496;51.404;7.232;2022-10-22T15:03:10;3.47;;;1.20;;
2972;SDS011;1496;51.404;7.232;2022-10-22T15:05:39;7.37;;;1.23;;
2972;SDS011;1496;51.404;7.232;2022-10-22T15:08:12;8.93;;;2.00;;
2972;SDS011;1496;51.404;7.232;2022-10-22T15:10:39;5.60;;;1.50;;
2972;SDS011;1496;51.404;7.232;2022-10-22T15:13:05;9.63;;;1.30;;
2972;SDS011;1496;51.404;7.232;2022-10-22T15:15:31;5.83;;;1.13;;
2972;SDS011;1496;51.404;7.232;2022-10-22T15:17:57;6.30;;;1.00;;
2972;SDS011;1496;51.404;7.232;2022-10-22T15:20:22;4.17;;;1.00;;
2972;SDS011;1496;51.404;7.232;2022-10-22T15:22:48;3.53;;;1.23;;
2972;SDS011;1496;51.404;7.232;2022-10-22T15:25:14;7.33;;;1.30;;
2972;SDS011;1496;51.404;7.232;2022-10-22T15:27:39;5.17;;;1.00;;
2972;SDS011;1496;51.404;7.232;2022-10-22T15:30:05;5.20;;;1.00;;
2972;SDS011;1496;51.404;7.232;2022-10-22T15:32:32;3.67;;;1.10;;
2972;SDS011;1496;51.404;7.232;2022-10-22T15:34:58;3.63;;;1.00;;
2972;SDS011;1496;51.404;7.232;2022-10-22T15:37:25;3.20;;;1.00;;
2972;SDS011;1496;51.404;7.232;2022-10-22T15:39:51;4.80;;;0.97;;
2972;SDS011;1496;51.404;7.232;2022-10-22T15:42:17;4.90;;;1.20;;
2972;SDS011;1496;51.404;7.232;2022-10-22T15:44:43;5.90;;;1.10;;
2972;SDS011;1496;51.404;7.232;2022-10-22T15:47:09;5.30;;;1.70;;
2972;SDS011;1496;51.404;7.232;2022-10-22T15:49:36;2.27;;;1.00;;
2972;SDS011;1496;51.404;7.232;2022-10-22T15:52:03;5.90;;;1.60;;
2972;SDS011;1496;51.404;7.232;2022-10-22T15:54:30;2.93;;;1.03;;
2972;SDS011;1496;51.404;7.232;2022-10-22T15:56:56;15.13;;;2.00;;
2972;SDS011;1496;51.404;7.232;2022-10-22T15:59:23;3.57;;;1.40;;
2972;SDS011;1496;51.404;7.232;2022-10-22T16:01:50;6.50;;;1.90;;
2972;SDS011;1496;51.404;7.232;2022-10-22T16:04:16;3.50;;;1.40;;
2972;SDS011;1496;51.404;7.232;2022-10-22T16:06:45;4.47;;;1.40;;
2972;SDS011;1496;51.404;7.232;2022-10-22T16:09:14;4.30;;;1.30;;
2972;SDS011;1496;51.404;7.232;2022-10-22T16:11:42;5.57;;;2.03;;
2972;SDS011;1496;51.404;7.232;2022-10-22T16:14:12;2.97;;;1.43;;
2972;SDS011;1496;51.404;7.232;2022-10-22T16:16:43;7.10;;;1.90;;
2972;SDS011;1496;51.404;7.232;2022-10-22T16:19:12;5.27;;;1.90;;
2972;SDS011;1496;51.404;7.232;2022-10-22T16:21:39;5.40;;;1.70;;
2972;SDS011;1496;51.404;7.232;2022-10-22T16:24:05;7.40;;;2.17;;
2972;SDS011;1496;51.404;7.232;2022-10-22T16:26:32;6.87;;;1.83;;
2972;SDS011;1496;51.404;7.232;2022-10-22T16:28:58;6.63;;;1.77;;
2972;SDS011;1496;51.404;7.232;2022-10-22T16:31:23;3.17;;;1.50;;
2972;SDS011;1496;51.404;7.232;2022-10-22T16:33:49;5.70;;;1.60;;
2972;SDS011;1496;51.404;7.232;2022-10-22T16:36:16;6.00;;;1.70;;
2972;SDS011;1496;51.404;7.232;2022-10-22T16:38:46;3.43;;;1.60;;
2972;SDS011;1496;51.404;7.232;2022-10-22T16:41:16;6.43;;;1.90;;
2972;SDS011;1496;51.404;7.232;2022-10-22T16:43:47;6.90;;;2.20;;
2972;SDS011;1496;51.404;7.232;2022-10-22T16:46:15;11.50;;;2.20;;
2972;SDS011;1496;51.404;7.232;2022-10-22T16:48:49;8.90;;;2.70;;
2972;SDS011;1496;51.404;7.232;2022-10-22T16:51:17;14.03;;;2.40;;
2972;SDS011;1496;51.404;7.232;2022-10-22T16:53:45;13.63;;;2.57;;
2972;SDS011;1496;51.404;7.232;2022-10-22T16:56:11;14.70;;;2.50;;